Time;durP1;ratioP1;P1;durP2;ratioP2;P2;SDS_P1;SDS_P2;PMS_P1;PMS_P2;Temp;Humidity;BMP_temperature;BMP_pressure;BME280_temperature;BME280_humidity;BME280_pressure;Samples;Min_cycle;Max_cycle;Signal;HPM_P1;HPM_P2
2021/11/03 00:00:54;;;;;;;12.03;8.37;;;9.50;72.80;;;;;;5076002;28;20023;-81
2021/11/03 00:03:20;;;;;;;13.80;8.53;;;9.50;73.00;;;;;;5072812;28;20028;-81
2021/11/03 00:05:47;;;;;;;15.17;8.37;;;9.50;73.10;;;;;;5084733;28;20023;-81
2021/11/03 00:08:20;;;;;;;16.70;8.40;;;9.50;73.00;;;;;;5069278;28;20378;-81
2021/11/03 00:10:46;;;;;;;;;;;9.50;73.10;;;;;;5082394;28;20104;-80
2021/11/03 00:13:14;;;;;;;12.23;8.17;;;9.50;72.90;;;;;;5091324;28;19930;-81
2021/11/03 00:15:40;;;;;;;15.80;8.57;;;9.50;72.80;;;;;;5072199;28;20455;-80
2021/11/03 00:18:06;;;;;;;10.83;8.07;;;9.50;73.00;;;;;;5072036;28;20028;-81
2021/11/03 00:20:33;;;;;;;9.80;7.67;;;9.50;73.00;;;;;;5091340;28;20073;-81
2021/11/03 00:22:59;;;;;;;9.73;6.47;;;9.50;73.00;;;;;;5068230;28;20025;-80
2021/11/03 00:25:26;;;;;;;10.83;7.33;;;9.50;72.90;;;;;;5091828;28;20023;-80
2021/11/03 00:27:52;;;;;;;12.10;7.87;;;9.40;72.80;;;;;;5064415;28;20083;-80
2021/11/03 00:30:19;;;;;;;12.43;7.80;;;9.40;73.00;;;;;;5071269;28;20044;-80
2021/11/03 00:32:45;;;;;;;14.70;8.50;;;9.30;73.00;;;;;;5071639;28;20127;-81
2021/11/03 00:35:12;;;;;;;10.57;7.40;;;9.40;73.20;;;;;;5062940;28;20040;-80
2021/11/03 00:37:38;;;;;;;7.43;5.93;;;9.30;73.20;;;;;;5091317;28;20028;-80
2021/11/03 00:40:06;;;;;;;6.87;4.40;;;9.30;73.20;;;;;;5075989;28;20031;-81
2021/11/03 00:42:32;;;;;;;6.20;4.10;;;9.30;73.10;;;;;;5072802;28;20478;-81
2021/11/03 00:44:58;;;;;;;5.07;3.13;;;9.30;73.00;;;;;;5073211;28;20051;-81
2021/11/03 00:47:25;;;;;;;4.57;3.53;;;9.30;72.90;;;;;;5070829;28;20040;-81
2021/11/03 00:49:51;;;;;;;6.43;3.20;;;9.30;72.70;;;;;;5069891;28;20024;-80
2021/11/03 00:52:17;;;;;;;2.70;2.40;;;9.30;72.60;;;;;;5091021;28;20671;-81
2021/11/03 00:54:42;;;;;;;3.10;1.73;;;9.30;72.60;;;;;;5097593;28;20028;-81
2021/11/03 00:57:08;;;;;;;2.43;1.67;;;9.30;72.50;;;;;;5064113;28;20029;-81
2021/11/03 00:59:34;;;;;;;2.87;1.77;;;9.30;72.30;;;;;;5070740;28;20143;-81
2021/11/03 01:01:59;;;;;;;2.80;1.30;;;9.20;72.10;;;;;;5073128;28;20031;-80
2021/11/03 01:04:26;;;;;;;2.00;1.20;;;9.20;72.00;;;;;;5094803;28;20064;-81
2021/11/03 01:06:52;;;;;;;1.83;1.10;;;9.10;72.00;;;;;;5076403;28;20034;-81
2021/11/03 01:09:18;;;;;;;2.87;1.63;;;9.10;72.00;;;;;;5097492;28;20031;-81
2021/11/03 01:11:44;;;;;;;1.50;1.23;;;9.10;72.00;;;;;;5074668;28;20698;-81
2021/11/03 01:14:11;;;;;;;2.33;1.43;;;9.00;71.90;;;;;;5091364;28;20059;-81
2021/11/03 01:16:38;;;;;;;2.60;1.80;;;9.10;71.80;;;;;;5092478;28;20938;-81
2021/11/03 01:19:04;;;;;;;2.37;1.83;;;9.10;71.70;;;;;;5075285;28;20027;-81
2021/11/03 01:21:31;;;;;;;2.10;1.60;;;9.10;71.60;;;;;;5078425;28;20039;-81
2021/11/03 01:23:57;;;;;;;4.43;1.70;;;9.00;71.80;;;;;;5077708;28;20019;-81
2021/11/03 01:26:23;;;;;;;3.30;2.03;;;9.00;71.80;;;;;;5095685;28;20417;-81
2021/11/03 01:28:48;;;;;;;2.83;2.03;;;9.00;71.80;;;;;;5093149;28;20537;-81
2021/11/03 01:31:14;;;;;;;3.30;2.10;;;9.00;71.80;;;;;;5074577;28;20080;-81
2021/11/03 01:33:42;;;;;;;3.87;2.10;;;9.00;72.10;;;;;;5093151;28;20024;-81
2021/11/03 01:36:09;;;;;;;3.00;2.37;;;9.00;72.30;;;;;;5078593;28;20826;-81
2021/11/03 01:38:34;;;;;;;4.47;1.90;;;9.00;72.20;;;;;;5076250;28;20035;-81
2021/11/03 01:41:01;;;;;;;2.03;1.37;;;9.00;72.10;;;;;;5093303;28;20033;-81
2021/11/03 01:43:41;;;;;;;2.53;1.73;;;9.00;71.90;;;;;;5099834;28;20486;-81
2021/11/03 01:46:40;;;;;;;2.57;1.70;;;9.00;71.60;;;;;;5081289;28;20062;-81
2021/11/03 01:49:25;;;;;;;3.30;2.30;;;9.00;71.60;;;;;;5088809;28;20457;-81
2021/11/03 01:52:05;;;;;;;6.43;2.30;;;8.90;71.50;;;;;;5094645;28;20020;-81
2021/11/03 01:54:42;;;;;;;2.90;2.27;;;9.00;71.60;;;;;;5069955;28;20031;-81
2021/11/03 01:57:24;;;;;;;2.60;1.90;;;9.00;71.50;;;;;;5070274;28;20044;-81
2021/11/03 02:00:04;;;;;;;4.07;2.50;;;9.00;71.50;;;;;;5065518;28;20117;-81
2021/11/03 02:02:33;;;;;;;4.50;2.27;;;9.00;71.40;;;;;;5087194;28;21419;-82
2021/11/03 02:04:59;;;;;;;3.33;2.50;;;9.00;71.50;;;;;;5084396;28;20030;-82
2021/11/03 02:07:27;;;;;;;3.47;2.47;;;9.00;71.50;;;;;;5067167;28;20146;-82
2021/11/03 02:09:53;;;;;;;4.67;2.40;;;9.00;71.40;;;;;;5079122;28;20069;-81
2021/11/03 02:12:22;;;;;;;4.00;2.70;;;9.00;71.20;;;;;;5075370;28;20103;-81
2021/11/03 02:14:49;;;;;;;5.07;2.30;;;9.00;71.30;;;;;;5080125;28;20020;-81
2021/11/03 02:17:17;;;;;;;3.53;2.30;;;9.00;71.30;;;;;;5076594;28;20027;-81
2021/11/03 02:19:44;;;;;;;2.60;1.50;;;9.00;71.30;;;;;;5064780;28;20075;-81
2021/11/03 02:22:36;;;;;;;2.10;1.60;;;8.90;71.00;;;;;;5080046;28;20032;-81
2021/11/03 02:25:16;;;;;;;2.13;1.30;;;8.90;70.80;;;;;;5088078;28;20028;-82
2021/11/03 02:27:48;;;;;;;2.53;1.33;;;8.90;70.90;;;;;;5097431;28;20103;-81
2021/11/03 02:30:18;;;;;;;2.50;1.33;;;8.80;70.70;;;;;;5072166;28;20032;-81
2021/11/03 02:32:44;;;;;;;4.73;1.47;;;8.90;70.80;;;;;;5075540;28;20429;-81
2021/11/03 02:35:13;;;;;;;2.70;1.50;;;8.90;70.70;;;;;;5081467;28;20063;-82
2021/11/03 02:37:48;;;;;;;3.93;1.63;;;8.90;71.30;;;;;;5075125;28;20044;-81
2021/11/03 02:40:46;;;;;;;3.13;1.67;;;8.90;70.50;;;;;;5065667;28;20031;-82
2021/11/03 02:43:24;;;;;;;3.03;1.57;;;8.90;70.50;;;;;;5089802;28;20026;-82
2021/11/03 02:45:56;;;;;;;4.43;1.23;;;8.90;70.40;;;;;;5079474;28;20043;-81
2021/11/03 02:48:24;;;;;;;1.85;1.40;;;8.90;70.80;;;;;;5086751;28;20024;-81
2021/11/03 02:50:52;;;;;;;3.00;1.50;;;8.80;70.30;;;;;;5093744;28;20031;-82
2021/11/03 02:53:18;;;;;;;2.00;1.23;;;8.80;70.20;;;;;;5099220;28;20395;-81
2021/11/03 02:55:44;;;;;;;2.00;1.30;;;8.80;70.30;;;;;;5091305;28;20028;-82
2021/11/03 02:58:09;;;;;;;5.10;1.60;;;8.80;70.30;;;;;;5100491;28;20031;-82
2021/11/03 03:00:35;;;;;;;3.80;2.20;;;8.80;70.20;;;;;;5070331;28;20032;-82
2021/11/03 03:03:01;;;;;;;4.50;2.00;;;8.80;70.10;;;;;;5073179;28;20828;-81
2021/11/03 03:05:26;;;;;;;4.97;2.43;;;8.80;70.30;;;;;;5094477;28;20044;-82
2021/11/03 03:07:52;;;;;;;5.53;2.80;;;8.80;70.30;;;;;;5065973;28;20028;-82
2021/11/03 03:10:18;;;;;;;4.03;2.23;;;8.80;70.20;;;;;;5074690;28;20016;-82
2021/11/03 03:12:44;;;;;;;2.90;1.63;;;8.80;70.00;;;;;;5073966;28;20032;-82
2021/11/03 03:15:10;;;;;;;4.13;2.20;;;8.80;70.00;;;;;;5095208;28;20249;-81
2021/11/03 03:17:36;;;;;;;5.67;2.40;;;8.80;70.00;;;;;;5078829;28;20067;-81
2021/11/03 03:20:03;;;;;;;6.30;1.63;;;8.80;70.00;;;;;;5076432;28;21475;-81
2021/11/03 03:22:29;;;;;;;3.23;1.60;;;8.80;70.10;;;;;;5079426;28;20032;-81
2021/11/03 03:24:55;;;;;;;4.37;2.30;;;8.70;70.10;;;;;;5092672;28;20032;-81
2021/11/03 03:27:20;;;;;;;3.03;1.80;;;8.80;70.20;;;;;;5095398;28;20020;-81
2021/11/03 03:29:46;;;;;;;5.37;2.13;;;8.70;69.90;;;;;;5089150;28;20016;-81
2021/11/03 03:32:12;;;;;;;3.37;2.70;;;8.60;70.30;;;;;;5072626;28;20028;-81
2021/11/03 03:34:39;;;;;;;4.13;2.17;;;8.60;70.60;;;;;;5090234;28;20042;-81
2021/11/03 03:37:05;;;;;;;3.47;2.50;;;8.60;70.60;;;;;;5091286;28;20028;-80
2021/11/03 03:39:30;;;;;;;4.07;2.60;;;8.70;70.60;;;;;;5072388;28;20753;-81
2021/11/03 03:42:03;;;;;;;4.87;2.73;;;8.80;70.30;;;;;;5085410;28;20056;-81
2021/11/03 03:44:29;;;;;;;3.47;2.25;;;8.80;70.20;;;;;;5069478;28;20051;-81
2021/11/03 03:46:55;;;;;;;4.00;2.27;;;8.80;70.30;;;;;;5070710;28;20059;-80
2021/11/03 03:49:21;;;;;;;3.17;2.40;;;8.80;70.10;;;;;;5074152;28;20020;-81
2021/11/03 03:51:47;;;;;;;2.60;1.70;;;8.80;70.00;;;;;;5091132;28;20016;-81
2021/11/03 03:54:13;;;;;;;2.60;1.90;;;8.80;70.20;;;;;;5098581;28;20047;-81
2021/11/03 03:56:39;;;;;;;3.23;2.23;;;8.80;70.20;;;;;;5100569;28;20027;-81
2021/11/03 03:59:05;;;;;;;5.00;2.30;;;8.80;69.90;;;;;;5091401;28;20019;-81
2021/11/03 04:01:31;;;;;;;3.93;2.87;;;8.80;69.90;;;;;;5095122;28;20023;-81
2021/11/03 04:03:57;;;;;;;4.67;3.50;;;8.80;69.50;;;;;;5085213;28;20394;-81
2021/11/03 04:06:24;;;;;;;6.07;2.90;;;8.70;69.50;;;;;;5086456;28;20037;-81
2021/11/03 04:08:50;;;;;;;4.37;3.03;;;8.60;69.70;;;;;;5092801;28;20387;-81
2021/11/03 04:11:16;;;;;;;4.30;3.30;;;8.60;69.90;;;;;;5097200;28;20097;-81
2021/11/03 04:13:42;;;;;;;5.13;2.77;;;8.60;69.80;;;;;;5095330;28;20032;-81
2021/11/03 04:16:08;;;;;;;4.10;2.87;;;8.60;69.90;;;;;;5078166;28;20207;-81
2021/11/03 04:18:35;;;;;;;6.70;3.53;;;8.60;69.80;;;;;;5073498;28;20463;-81
2021/11/03 04:21:01;;;;;;;5.87;3.93;;;8.60;69.80;;;;;;5094685;28;20024;-81
2021/11/03 04:23:27;;;;;;;6.80;2.60;;;8.50;69.90;;;;;;5091794;28;20032;-81
2021/11/03 04:25:54;;;;;;;2.87;1.60;;;8.50;70.00;;;;;;5094166;28;20020;-81
2021/11/03 04:28:19;;;;;;;2.57;1.53;;;8.50;70.00;;;;;;5072701;28;20027;-81
2021/11/03 04:30:45;;;;;;;3.13;2.23;;;8.60;70.00;;;;;;5072941;28;20020;-81
2021/11/03 04:33:11;;;;;;;5.23;2.60;;;8.60;69.80;;;;;;5087661;28;20495;-81
2021/11/03 04:35:37;;;;;;;4.13;2.37;;;8.60;69.60;;;;;;5092165;28;20047;-81
2021/11/03 04:38:03;;;;;;;3.93;2.37;;;8.60;69.60;;;;;;5095677;28;20611;-81
2021/11/03 04:40:30;;;;;;;3.17;2.50;;;8.60;69.60;;;;;;5092644;28;20032;-81
2021/11/03 04:42:57;;;;;;;3.80;2.70;;;8.60;69.60;;;;;;5089325;28;20028;-81
2021/11/03 04:45:24;;;;;;;2.57;1.77;;;8.50;69.50;;;;;;5090661;28;20075;-81
2021/11/03 04:47:49;;;;;;;3.97;2.47;;;8.60;69.70;;;;;;5071029;28;20032;-81
2021/11/03 04:50:22;;;;;;;4.40;2.70;;;8.50;69.60;;;;;;5086104;28;20056;-81
2021/11/03 04:52:48;;;;;;;5.28;2.95;;;8.50;69.70;;;;;;5091545;28;20032;-81
2021/11/03 04:55:14;;;;;;;4.90;3.17;;;8.50;69.70;;;;;;5074426;28;20150;-81
2021/11/03 04:57:40;;;;;;;4.77;3.10;;;8.50;69.60;;;;;;5074283;28;20115;-81
2021/11/03 05:00:10;;;;;;;4.67;3.00;;;8.50;69.60;;;;;;5073350;28;20558;-81
2021/11/03 05:02:36;;;;;;;5.17;2.57;;;8.50;69.70;;;;;;5075523;28;20051;-81
2021/11/03 05:05:02;;;;;;;3.60;2.33;;;8.50;69.80;;;;;;5092413;28;20028;-81
2021/11/03 05:07:28;;;;;;;3.80;2.40;;;8.60;69.90;;;;;;5071639;28;20049;-81
2021/11/03 05:09:53;;;;;;;3.27;2.20;;;8.60;69.60;;;;;;5066696;28;20024;-81
2021/11/03 05:12:19;;;;;;;5.10;2.20;;;8.60;69.50;;;;;;5069747;28;20027;-81
2021/11/03 05:14:45;;;;;;;6.27;4.20;;;8.60;69.40;;;;;;5090021;28;20020;-81
2021/11/03 05:17:11;;;;;;;8.00;5.00;;;8.50;69.70;;;;;;5080160;28;20024;-81
2021/11/03 05:19:36;;;;;;;6.87;5.50;;;8.50;70.00;;;;;;5067921;28;20042;-81
2021/11/03 05:22:03;;;;;;;7.93;5.80;;;8.50;70.10;;;;;;5087580;28;20029;-81
2021/11/03 05:24:30;;;;;;;7.57;5.53;;;8.50;70.50;;;;;;5079612;28;20024;-81
2021/11/03 05:26:58;;;;;;;6.83;5.33;;;8.50;70.80;;;;;;5077103;28;20116;-81
2021/11/03 05:29:24;;;;;;;8.20;6.50;;;8.40;70.80;;;;;;5076879;28;20474;-81
2021/11/03 05:31:50;;;;;;;7.83;5.40;;;8.50;71.30;;;;;;5076448;28;20035;-81
2021/11/03 05:34:15;;;;;;;9.30;5.67;;;8.50;71.30;;;;;;5094802;28;20534;-81
2021/11/03 05:36:41;;;;;;;8.43;5.13;;;8.50;71.20;;;;;;5089640;28;20099;-81
2021/11/03 05:39:10;;;;;;;11.33;4.40;;;8.50;71.60;;;;;;5078841;28;20024;-81
2021/11/03 05:41:39;;;;;;;6.53;3.77;;;8.50;71.00;;;;;;5074308;28;20024;-81
2021/11/03 05:44:07;;;;;;;4.40;3.20;;;8.50;70.80;;;;;;5067888;28;20048;-81
2021/11/03 05:46:42;;;;;;;6.13;4.13;;;8.50;70.70;;;;;;5071258;28;20064;-81
2021/11/03 05:49:09;;;;;;;8.30;4.77;;;8.50;70.70;;;;;;5067816;28;20526;-81
2021/11/03 05:51:37;;;;;;;6.43;5.07;;;8.50;70.70;;;;;;5059067;28;20036;-82
2021/11/03 05:54:04;;;;;;;5.00;3.20;;;8.50;70.70;;;;;;5041307;28;20025;-81
2021/11/03 05:56:30;;;;;;;4.90;3.50;;;8.50;70.40;;;;;;5054673;28;20024;-81
2021/11/03 05:58:56;;;;;;;5.27;3.40;;;8.50;70.40;;;;;;5071119;28;20031;-81
2021/11/03 06:01:22;;;;;;;7.40;4.40;;;8.50;70.30;;;;;;5057359;28;20103;-81
2021/11/03 06:03:48;;;;;;;9.10;5.40;;;8.40;70.40;;;;;;5061536;28;20111;-81
2021/11/03 06:06:14;;;;;;;6.60;4.53;;;8.40;70.60;;;;;;5047821;28;20059;-81
2021/11/03 06:08:40;;;;;;;9.03;5.90;;;8.50;70.60;;;;;;5053028;28;20032;-81
2021/11/03 06:11:07;;;;;;;8.40;5.90;;;8.50;70.40;;;;;;5073669;28;20017;-81
2021/11/03 06:13:33;;;;;;;11.33;6.43;;;8.50;70.50;;;;;;5053779;28;20546;-81
2021/11/03 06:15:59;;;;;;;12.80;7.57;;;8.50;70.60;;;;;;5078350;28;20045;-81
2021/11/03 06:18:24;;;;;;;11.00;7.23;;;8.50;70.80;;;;;;5076960;28;20036;-81
2021/11/03 06:20:50;;;;;;;12.23;7.33;;;8.50;70.70;;;;;;5055602;28;20033;-81
2021/11/03 06:23:16;;;;;;;10.73;7.90;;;8.50;70.80;;;;;;5068025;28;20029;-81
2021/11/03 06:25:42;;;;;;;16.27;9.30;;;8.50;70.80;;;;;;5064688;28;20033;-81
2021/11/03 06:28:07;;;;;;;14.43;9.47;;;8.50;70.60;;;;;;5059582;28;20363;-81
2021/11/03 06:30:37;;;;;;;17.83;9.97;;;8.50;70.40;;;;;;5052734;28;20017;-81
2021/11/03 06:33:04;;;;;;;16.60;10.43;;;8.40;70.40;;;;;;5073547;28;20598;-81
2021/11/03 06:35:30;;;;;;;17.97;10.80;;;8.50;70.50;;;;;;5065675;28;20037;-81
2021/11/03 06:37:56;;;;;;;14.10;8.47;;;8.50;70.40;;;;;;5067869;28;20078;-81
2021/11/03 06:40:24;;;;;;;13.67;8.40;;;8.50;70.30;;;;;;5048739;28;20024;-81
2021/11/03 06:42:50;;;;;;;13.43;8.83;;;8.40;70.30;;;;;;5050349;28;20384;-81
2021/11/03 06:45:18;;;;;;;14.97;9.43;;;8.40;70.40;;;;;;5096047;28;20471;-81
2021/11/03 06:47:45;;;;;;;14.50;9.60;;;8.40;70.60;;;;;;5084489;28;20036;-81
2021/11/03 06:50:13;;;;;;;16.73;9.07;;;8.50;70.50;;;;;;5092686;28;20020;-81
2021/11/03 06:52:40;;;;;;;17.10;10.87;;;8.50;70.80;;;;;;5069175;28;20414;-81
2021/11/03 06:55:08;;;;;;;20.97;11.33;;;8.50;70.80;;;;;;5084204;28;20118;-81
2021/11/03 06:57:33;;;;;;;14.23;10.63;;;8.50;70.70;;;;;;5112023;28;20034;-82
2021/11/03 07:00:01;;;;;;;13.93;9.63;;;8.60;70.60;;;;;;5079654;28;20028;-81
2021/11/03 07:02:27;;;;;;;13.87;7.37;;;8.60;70.50;;;;;;5081158;28;20036;-81
2021/11/03 07:04:53;;;;;;;18.30;8.17;;;8.50;70.60;;;;;;5079247;28;20386;-81
2021/11/03 07:07:18;;;;;;;16.17;8.27;;;8.60;70.70;;;;;;5073582;28;20028;-81
2021/11/03 07:09:44;;;;;;;15.37;8.00;;;8.60;70.70;;;;;;5082333;28;20028;-81
2021/11/03 07:12:10;;;;;;;16.83;7.83;;;8.70;70.70;;;;;;5091992;28;20043;-81
2021/11/03 07:14:36;;;;;;;13.50;7.23;;;8.60;70.60;;;;;;5078446;28;20444;-81
2021/11/03 07:17:01;;;;;;;21.33;10.43;;;8.60;70.70;;;;;;5079978;28;20072;-81
2021/11/03 07:19:27;;;;;;;15.07;7.93;;;8.60;70.80;;;;;;5099437;28;20035;-81
2021/11/03 07:21:53;;;;;;;19.07;9.20;;;8.60;70.80;;;;;;5085449;28;20081;-81
2021/11/03 07:24:19;;;;;;;13.17;8.57;;;8.60;70.80;;;;;;5079997;28;20032;-81
2021/11/03 07:26:45;;;;;;;33.83;14.20;;;8.70;70.70;;;;;;5059699;28;20036;-82
2021/11/03 07:29:12;;;;;;;20.67;12.50;;;8.70;70.80;;;;;;5091609;28;20031;-82
2021/11/03 07:31:38;;;;;;;11.73;6.57;;;8.70;70.80;;;;;;5074611;28;20048;-81
2021/11/03 07:34:03;;;;;;;13.60;7.93;;;8.70;70.90;;;;;;5089430;28;20063;-81
2021/11/03 07:36:33;;;;;;;20.23;11.73;;;8.70;71.10;;;;;;5077188;28;20396;-81
2021/11/03 07:38:59;;;;;;;15.20;9.87;;;8.60;71.10;;;;;;5088762;28;20036;-81
2021/11/03 07:41:25;;;;;;;14.00;9.00;;;8.60;71.80;;;;;;5078835;28;21499;-81
2021/11/03 07:43:51;;;;;;;11.90;7.00;;;8.60;72.00;;;;;;5091453;28;20478;-81
2021/11/03 07:46:17;;;;;;;10.57;7.30;;;8.80;72.80;;;;;;5083495;28;20032;-82
2021/11/03 07:48:43;;;;;;;15.53;8.27;;;8.80;72.40;;;;;;5087487;28;20492;-81
2021/11/03 07:51:13;;;;;;;14.43;7.67;;;9.10;73.30;;;;;;5080510;28;20036;-81
2021/11/03 07:53:40;;;;;;;11.83;6.60;;;9.40;72.80;;;;;;5074504;28;20032;-81
2021/11/03 07:56:11;;;;;;;14.00;7.23;;;9.60;72.00;;;;;;5073738;28;20386;-81
2021/11/03 07:58:38;;;;;;;13.93;7.13;;;9.60;71.40;;;;;;5075605;28;20412;-80
2021/11/03 08:01:05;;;;;;;11.87;6.77;;;9.70;71.40;;;;;;5091955;28;20036;-81
2021/11/03 08:03:32;;;;;;;8.97;6.00;;;9.70;71.30;;;;;;5054622;28;20029;-81
2021/11/03 08:05:59;;;;;;;9.57;6.40;;;9.70;71.20;;;;;;5070002;28;20130;-82
2021/11/03 08:08:26;;;;;;;11.13;6.30;;;9.80;70.90;;;;;;5094800;28;20066;-81
2021/11/03 08:10:53;;;;;;;8.50;7.03;;;9.90;70.90;;;;;;5094334;28;20081;-81
2021/11/03 08:13:22;;;;;;;10.47;7.13;;;9.90;70.50;;;;;;5074812;28;20054;-81
2021/11/03 08:15:51;;;;;;;14.50;6.53;;;9.90;70.30;;;;;;5080580;28;20024;-81
2021/11/03 08:18:19;;;;;;;13.33;7.10;;;9.80;70.30;;;;;;5103364;28;20024;-81
2021/11/03 08:20:45;;;;;;;10.10;6.43;;;9.80;70.70;;;;;;5102759;28;20043;-81
2021/11/03 08:23:12;;;;;;;8.93;6.23;;;9.80;70.40;;;;;;5037587;28;20041;-81
2021/11/03 08:25:38;;;;;;;10.70;7.10;;;9.90;70.50;;;;;;5072065;28;20068;-81
2021/11/03 08:28:05;;;;;;;8.57;6.77;;;10.00;70.50;;;;;;5099266;28;20028;-81
2021/11/03 08:30:31;;;;;;;9.70;6.47;;;10.10;70.30;;;;;;5089358;28;20483;-81
2021/11/03 08:33:03;;;;;;;10.17;6.87;;;10.00;70.10;;;;;;5076243;28;20056;-81
2021/11/03 08:35:29;;;;;;;9.03;7.53;;;10.10;70.10;;;;;;5088331;28;20454;-82
2021/11/03 08:38:00;;;;;;;10.83;8.03;;;10.20;70.00;;;;;;5098497;28;20051;-81
2021/11/03 08:40:26;;;;;;;8.57;7.43;;;10.20;69.90;;;;;;5089611;28;20028;-81
2021/11/03 08:42:52;;;;;;;11.20;8.07;;;10.30;70.00;;;;;;5095619;28;20114;-82
2021/11/03 08:45:18;;;;;;;11.60;7.90;;;10.20;69.50;;;;;;5098559;28;20112;-81
2021/11/03 08:47:44;;;;;;;11.93;7.13;;;10.20;69.40;;;;;;5097275;28;20259;-81
2021/11/03 08:50:15;;;;;;;10.23;6.67;;;10.20;69.50;;;;;;5094971;28;20673;-81
2021/11/03 08:52:42;;;;;;;20.70;9.13;;;10.20;69.80;;;;;;5073880;28;20028;-81
2021/11/03 08:55:08;;;;;;;12.20;8.33;;;10.30;69.80;;;;;;5072116;28;20059;-82
2021/11/03 08:57:35;;;;;;;11.00;7.47;;;10.40;70.00;;;;;;5085245;28;20028;-82
2021/11/03 09:00:06;;;;;;;12.80;7.97;;;10.50;69.80;;;;;;5076775;28;20032;-82
2021/11/03 09:02:36;;;;;;;13.50;7.40;;;10.50;69.50;;;;;;5078153;28;20028;-82
2021/11/03 09:05:04;;;;;;;13.10;8.07;;;10.60;69.60;;;;;;5091667;28;20375;-82
2021/11/03 09:07:32;;;;;;;11.50;7.47;;;10.60;69.00;;;;;;5093760;28;20455;-82
2021/11/03 09:10:04;;;;;;;10.77;7.80;;;10.70;69.10;;;;;;5077516;28;20063;-81
2021/11/03 09:12:30;;;;;;;11.37;6.77;;;10.60;69.00;;;;;;5077576;28;20028;-82
2021/11/03 09:14:55;;;;;;;13.03;7.57;;;10.70;69.00;;;;;;5077667;28;20024;-81
2021/11/03 09:17:21;;;;;;;10.10;7.00;;;10.80;69.00;;;;;;5077856;28;20165;-82
2021/11/03 09:19:48;;;;;;;11.43;8.03;;;10.90;68.70;;;;;;5084917;28;20039;-81
2021/11/03 09:22:14;;;;;;;11.57;7.57;;;11.00;68.60;;;;;;5077152;28;20059;-81
2021/11/03 09:24:40;;;;;;;12.57;7.60;;;11.10;68.30;;;;;;5077203;28;20028;-81
2021/11/03 09:27:13;;;;;;;13.97;8.10;;;11.10;68.10;;;;;;5077440;28;20032;-81
2021/11/03 09:29:50;;;;;;;14.73;8.13;;;11.00;67.80;;;;;;5095499;28;20024;-82
2021/11/03 09:32:19;;;;;;;9.37;7.33;;;11.00;67.80;;;;;;5075779;28;20028;-82
2021/11/03 09:34:50;;;;;;;12.47;8.17;;;11.00;67.80;;;;;;5078645;28;20062;-81
2021/11/03 09:37:18;;;;;;;10.73;8.23;;;11.00;67.70;;;;;;5083380;28;20433;-81
2021/11/03 09:39:45;;;;;;;15.43;9.10;;;11.00;67.80;;;;;;5113449;28;20110;-81
2021/11/03 09:42:13;;;;;;;11.20;7.60;;;11.10;67.60;;;;;;5088769;28;20110;-81
2021/11/03 09:44:42;;;;;;;15.30;8.70;;;11.00;67.80;;;;;;5076300;28;20047;-82
2021/11/03 09:47:14;;;;;;;18.90;9.67;;;10.90;67.80;;;;;;5076519;28;20036;-81
2021/11/03 09:49:44;;;;;;;14.48;8.50;;;10.90;68.00;;;;;;5076459;28;20028;-82
2021/11/03 09:52:25;;;;;;;13.60;9.10;;;11.00;68.00;;;;;;5067829;28;20047;-82
2021/11/03 09:55:11;;;;;;;16.80;8.70;;;11.00;67.80;;;;;;5102157;28;20513;-81
2021/11/03 09:57:46;;;;;;;11.87;7.97;;;11.00;67.80;;;;;;5095434;28;20031;-81
2021/11/03 10:00:12;;;;;;;12.90;8.63;;;11.00;67.80;;;;;;5093667;28;20034;-82
2021/11/03 10:02:54;;;;;;;12.73;8.80;;;11.10;67.50;;;;;;5100633;28;20025;-81
2021/11/03 10:05:35;;;;;;;12.17;7.97;;;11.10;66.90;;;;;;5063904;28;20024;-82
2021/11/03 10:08:13;;;;;;;11.70;9.63;;;11.10;67.20;;;;;;5094496;28;20024;-81
2021/11/03 10:10:56;;;;;;;14.87;10.40;;;11.10;66.70;;;;;;5097084;28;20021;-82
2021/11/03 10:13:23;;;;;;;11.57;7.97;;;11.10;67.30;;;;;;5114754;28;20020;-81
2021/11/03 10:16:13;;;;;;;19.27;11.27;;;11.30;67.60;;;;;;5114995;28;20024;-82
2021/11/03 10:18:57;;;;;;;12.30;9.03;;;11.60;67.00;;;;;;5112517;28;20035;-82
2021/11/03 10:21:33;;;;;;;14.97;8.47;;;12.10;66.90;;;;;;5067211;28;20025;-82
2021/11/03 10:24:11;;;;;;;14.70;8.97;;;12.50;66.10;;;;;;5092773;28;20080;-81
2021/11/03 10:26:58;;;;;;;10.13;8.23;;;12.80;65.40;;;;;;5093084;28;20015;-82
2021/11/03 10:29:35;;;;;;;8.50;6.60;;;13.20;64.80;;;;;;5092326;28;20035;-81
2021/11/03 10:32:24;;;;;;;11.57;8.13;;;13.50;63.90;;;;;;5068328;28;20020;-82
2021/11/03 10:35:09;;;;;;;9.63;7.00;;;13.60;63.70;;;;;;5086959;28;20126;-82
2021/11/03 10:37:40;;;;;;;9.80;7.30;;;13.60;62.80;;;;;;5070462;28;20039;-82
2021/11/03 10:40:21;;;;;;;8.53;7.00;;;13.70;63.40;;;;;;5076488;28;20027;-82
2021/11/03 10:42:47;;;;;;;13.37;6.30;;;13.80;62.60;;;;;;5109676;28;20043;-82
2021/11/03 10:45:13;;;;;;;11.77;6.57;;;13.80;62.50;;;;;;5077872;28;20555;-82
2021/11/03 10:47:39;;;;;;;9.17;7.30;;;14.00;62.10;;;;;;5068530;28;20041;-82
2021/11/03 10:50:34;;;;;;;12.55;7.32;;;14.20;61.90;;;;;;5042645;28;20037;-82
2021/11/03 10:53:19;;;;;;;7.70;6.45;;;14.40;61.00;;;;;;5085433;28;20035;-82
2021/11/03 10:55:57;;;;;;;9.30;6.63;;;14.50;60.40;;;;;;5047603;28;20047;-82
2021/11/03 10:58:30;;;;;;;9.27;6.15;;;14.50;59.80;;;;;;5052778;28;20127;-82
2021/11/03 11:01:07;;;;;;;9.82;6.78;;;14.50;60.20;;;;;;5056617;28;20028;-82
2021/11/03 11:03:58;;;;;;;9.15;6.28;;;14.80;59.90;;;;;;5072816;28;20071;-82
2021/11/03 11:06:35;;;;;;;8.07;5.40;;;15.10;59.30;;;;;;5037768;28;20041;-82
2021/11/03 11:09:10;;;;;;;8.70;4.68;;;15.20;58.80;;;;;;5070498;28;20437;-82
2021/11/03 11:11:39;;;;;;;9.20;4.90;;;15.40;58.40;;;;;;5092563;28;20021;-83
2021/11/03 11:14:17;;;;;;;7.07;4.50;;;15.50;58.00;;;;;;5088847;28;20437;-82
2021/11/03 11:17:12;;;;;;;4.90;3.13;;;15.60;57.50;;;;;;5072816;28;20039;-82
2021/11/03 11:20:03;;;;;;;5.15;3.28;;;15.70;56.80;;;;;;5085874;28;20028;-82
2021/11/03 11:23:11;;;;;;;6.50;3.45;;;15.60;56.30;;;;;;5080423;28;20020;-82
2021/11/03 11:26:10;;;;;;;6.32;3.50;;;15.50;56.40;;;;;;5074837;28;20016;-82
2021/11/03 11:28:59;;;;;;;10.60;5.10;;;15.40;56.60;;;;;;5075473;28;20112;-82
2021/11/03 11:31:50;;;;;;;11.88;5.60;;;15.30;56.60;;;;;;5060399;28;20038;-82
2021/11/03 11:34:37;;;;;;;10.77;4.97;;;15.40;56.80;;;;;;5059902;28;20467;-82
2021/11/03 11:37:07;;;;;;;32.83;10.38;;;15.60;56.70;;;;;;5074574;28;20032;-82
2021/11/03 11:39:51;;;;;;;29.30;8.63;;;15.70;55.90;;;;;;5088347;28;20035;-81
2021/11/03 11:42:39;;;;;;;9.55;5.40;;;15.70;55.70;;;;;;5058253;28;20031;-82
2021/11/03 11:45:18;;;;;;;8.25;4.20;;;15.80;55.60;;;;;;5079439;28;20083;-82
2021/11/03 11:47:51;;;;;;;12.55;4.78;;;15.80;54.80;;;;;;5076223;28;20048;-82
2021/11/03 11:50:39;;;;;;;7.10;5.20;;;15.80;54.80;;;;;;5085404;28;20019;-81
2021/11/03 11:53:24;;;;;;;7.07;4.75;;;15.80;54.80;;;;;;5075668;28;20028;-82
2021/11/03 11:56:08;;;;;;;8.60;4.82;;;15.80;54.50;;;;;;5084135;28;20020;-81
2021/11/03 11:58:38;;;;;;;9.77;4.70;;;15.70;54.20;;;;;;5090817;28;20257;-82
2021/11/03 12:01:12;;;;;;;6.32;4.47;;;15.70;54.60;;;;;;5093391;28;20023;-82
2021/11/03 12:03:51;;;;;;;8.02;5.35;;;15.80;54.70;;;;;;5082475;28;20024;-81
2021/11/03 12:06:17;;;;;;;8.93;4.65;;;15.90;54.70;;;;;;5093207;28;20386;-82
2021/11/03 12:08:57;;;;;;;6.30;3.97;;;16.00;54.70;;;;;;5098100;28;20028;-82
2021/11/03 12:11:44;;;;;;;5.82;4.30;;;15.90;54.00;;;;;;5093151;28;20016;-82
2021/11/03 12:14:22;;;;;;;8.75;6.10;;;15.80;54.20;;;;;;5096840;28;20024;-82
2021/11/03 12:17:09;;;;;;;13.38;7.97;;;15.70;54.10;;;;;;5074414;28;20052;-81
2021/11/03 12:19:38;;;;;;;11.57;7.60;;;15.70;54.10;;;;;;5088668;28;20032;-82
2021/11/03 12:22:17;;;;;;;11.98;6.70;;;15.70;54.20;;;;;;5080983;28;20017;-82
2021/11/03 12:24:49;;;;;;;6.78;4.65;;;15.80;54.20;;;;;;5097378;28;20095;-82
2021/11/03 12:27:25;;;;;;;8.20;5.90;;;15.80;53.80;;;;;;5069857;28;20032;-82
2021/11/03 12:30:07;;;;;;;9.10;5.20;;;15.80;53.90;;;;;;5094580;28;20028;-82
2021/11/03 12:33:02;;;;;;;12.57;6.55;;;15.70;53.70;;;;;;5074936;28;20024;-81
2021/11/03 12:35:31;;;;;;;10.07;5.65;;;15.60;53.70;;;;;;5083556;28;20078;-81
2021/11/03 12:38:27;;;;;;;9.38;6.53;;;15.60;54.20;;;;;;5093101;28;20115;-82
2021/11/03 12:40:52;;;;;;;10.80;5.00;;;15.60;54.20;;;;;;5076325;28;20074;-82
2021/11/03 12:43:26;;;;;;;6.85;4.97;;;15.70;54.50;;;;;;5076086;28;20032;-82
2021/11/03 12:46:15;;;;;;;10.32;5.78;;;15.80;54.40;;;;;;5072064;28;20052;-82
2021/11/03 12:48:58;;;;;;;7.70;5.30;;;15.80;54.60;;;;;;5073233;28;20051;-82
2021/11/03 12:51:39;;;;;;;12.05;7.25;;;15.90;54.30;;;;;;5092316;28;20392;-83
2021/11/03 12:54:19;;;;;;;10.27;6.28;;;15.90;54.10;;;;;;5073841;28;20029;-82
2021/11/03 12:56:58;;;;;;;10.70;6.00;;;15.90;54.30;;;;;;5073610;28;20077;-81
2021/11/03 12:59:26;;;;;;;12.70;6.57;;;15.80;54.40;;;;;;5080349;28;20449;-81
2021/11/03 13:02:18;;;;;;;13.10;7.35;;;15.90;54.60;;;;;;5100537;28;20036;-82
2021/11/03 13:04:47;;;;;;;12.85;6.85;;;15.90;54.40;;;;;;5060298;28;20479;-82